createdAt,value
2018-11-10T00:01:03.929Z,52.43
2018-11-10T00:03:39.225Z,47.90
2018-11-10T00:06:14.923Z,49.23
2018-11-10T00:08:50.462Z,49.58
2018-11-10T00:11:26.108Z,52.75
2018-11-10T00:14:01.344Z,46.53
2018-11-10T00:16:36.972Z,47.03
2018-11-10T00:19:12.283Z,46.65
2018-11-10T00:21:47.873Z,46.68
2018-11-10T00:24:23.107Z,48.05
2018-11-10T00:27:05.629Z,47.40
2018-11-10T00:29:40.923Z,47.20
2018-11-10T00:32:16.632Z,46.25
2018-11-10T00:34:52.326Z,47.03
2018-11-10T00:37:27.760Z,49.30
2018-11-10T00:40:03.415Z,49.03
2018-11-10T00:42:38.824Z,51.90
2018-11-10T00:45:14.049Z,48.05
2018-11-10T00:47:49.618Z,48.83
2018-11-10T00:50:24.989Z,47.88
2018-11-10T00:53:00.456Z,46.50
2018-11-10T00:55:35.769Z,46.33
2018-11-10T00:58:11.496Z,47.62
2018-11-10T01:00:46.804Z,47.03
2018-11-10T01:03:22.303Z,47.90
2018-11-10T01:05:57.770Z,44.35
2018-11-10T01:08:33.377Z,49.85
2018-11-10T01:11:08.963Z,51.15
2018-11-10T01:13:44.585Z,44.95
2018-11-10T01:16:20.121Z,46.48
2018-11-10T01:18:55.786Z,49.38
2018-11-10T01:21:31.243Z,47.20
2018-11-10T01:24:06.765Z,47.40
2018-11-10T01:26:42.128Z,47.70
2018-11-10T01:29:17.753Z,46.15
2018-11-10T01:31:53.236Z,48.10
2018-11-10T01:34:28.698Z,48.73
2018-11-10T01:37:04.069Z,48.08
2018-11-10T01:39:39.462Z,45.83
2018-11-10T01:42:14.760Z,47.95
2018-11-10T01:44:50.335Z,50.08
2018-11-10T01:47:25.809Z,47.98
2018-11-10T01:50:01.352Z,45.92
2018-11-10T01:52:36.681Z,49.23
2018-11-10T01:55:12.511Z,49.40
2018-11-10T01:57:47.816Z,44.83
2018-11-10T02:00:23.361Z,48.55
2018-11-10T02:02:58.584Z,50.85
2018-11-10T02:05:33.994Z,45.00
2018-11-10T02:08:09.371Z,46.60
2018-11-10T02:10:45.362Z,46.63
2018-11-10T02:13:20.832Z,42.85
2018-11-10T02:15:56.392Z,44.05
2018-11-10T02:18:31.661Z,46.02
2018-11-10T02:21:07.495Z,44.30
2018-11-10T02:23:42.993Z,40.92
2018-11-10T02:26:18.685Z,42.43
2018-11-10T02:28:54.161Z,42.20
2018-11-10T02:31:29.817Z,42.53
2018-11-10T02:34:05.757Z,44.33
2018-11-10T02:36:41.046Z,44.73
2018-11-10T02:39:16.536Z,41.63
2018-11-10T02:41:51.973Z,40.40
2018-11-10T02:44:27.212Z,41.60
2018-11-10T02:47:03.176Z,41.23
2018-11-10T02:49:38.546Z,43.28
2018-11-10T02:52:13.885Z,41.05
2018-11-10T02:54:49.192Z,41.73
2018-11-10T02:57:24.948Z,41.00
2018-11-10T03:00:00.134Z,40.08
2018-11-10T03:02:35.763Z,41.10
2018-11-10T03:05:11.682Z,39.80
2018-11-10T03:07:47.340Z,41.80
2018-11-10T03:10:22.979Z,42.45
2018-11-10T03:12:58.644Z,40.08
2018-11-10T03:15:34.107Z,40.92
2018-11-10T03:18:09.584Z,39.45
2018-11-10T03:20:45.065Z,41.73
2018-11-10T03:23:20.529Z,39.70
2018-11-10T03:25:55.934Z,38.25
2018-11-10T03:28:31.616Z,39.70
2018-11-10T03:31:07.341Z,38.73
2018-11-10T03:33:42.742Z,38.00
2018-11-10T03:36:18.226Z,38.70
2018-11-10T03:38:53.814Z,36.70
2018-11-10T03:41:29.273Z,38.00
2018-11-10T03:44:05.001Z,36.00
2018-11-10T03:46:40.512Z,36.55
2018-11-10T03:49:16.002Z,36.25
2018-11-10T03:51:51.371Z,35.52
2018-11-10T03:54:27.107Z,35.05
2018-11-10T03:57:02.945Z,36.13
2018-11-10T03:59:38.626Z,35.17
2018-11-10T04:02:14.072Z,35.90
2018-11-10T04:04:49.698Z,36.38
2018-11-10T04:07:25.008Z,35.35
2018-11-10T04:10:00.795Z,34.27
2018-11-10T04:12:36.413Z,34.33
2018-11-10T04:15:12.091Z,33.85
2018-11-10T04:17:47.405Z,35.00
2018-11-10T04:20:22.878Z,32.83
2018-11-10T04:22:58.425Z,32.48
2018-11-10T04:25:34.077Z,31.82
2018-11-10T04:28:09.281Z,32.05
2018-11-10T04:30:44.796Z,31.40
2018-11-10T04:33:20.127Z,32.60
2018-11-10T04:35:55.649Z,30.23
2018-11-10T04:38:31.088Z,32.78
2018-11-10T04:41:07.252Z,33.00
2018-11-10T04:43:42.677Z,31.97
2018-11-10T04:46:18.245Z,31.65
2018-11-10T04:48:53.685Z,32.42
2018-11-10T04:51:29.062Z,33.60
2018-11-10T04:54:04.892Z,31.65
2018-11-10T04:56:40.397Z,31.50
2018-11-10T04:59:16.008Z,32.93
2018-11-10T05:01:51.637Z,32.65
2018-11-10T05:04:27.061Z,30.85
2018-11-10T05:07:02.630Z,31.35
2018-11-10T05:09:38.439Z,29.92
2018-11-10T05:12:14.236Z,31.97
2018-11-10T05:14:49.732Z,29.37
2018-11-10T05:17:25.341Z,31.75
2018-11-10T05:20:00.540Z,30.82
2018-11-10T05:22:36.021Z,31.10
2018-11-10T05:25:11.740Z,28.95
2018-11-10T05:27:47.312Z,29.67
2018-11-10T05:30:22.789Z,30.82
2018-11-10T05:32:58.394Z,29.10
2018-11-10T05:35:33.605Z,30.37
2018-11-10T05:38:09.105Z,30.05
2018-11-10T05:40:44.558Z,29.45
2018-11-10T05:43:20.242Z,30.45
2018-11-10T05:45:55.653Z,30.15
2018-11-10T05:48:31.399Z,30.27
2018-11-10T05:51:06.853Z,29.63
2018-11-10T05:53:42.221Z,30.45
2018-11-10T05:56:17.696Z,28.87
2018-11-10T05:58:53.053Z,29.52
2018-11-10T06:01:28.395Z,30.05
2018-11-10T06:04:04.060Z,29.50
2018-11-10T06:06:39.737Z,27.80
2018-11-10T06:09:15.426Z,29.30
2018-11-10T06:11:50.861Z,28.52
2018-11-10T06:14:26.267Z,28.85
2018-11-10T06:17:01.713Z,29.45
2018-11-10T06:19:37.197Z,28.62
2018-11-10T06:22:12.700Z,28.70
2018-11-10T06:24:48.241Z,28.75
2018-11-10T06:27:23.425Z,29.52
2018-11-10T06:29:58.898Z,29.10
2018-11-10T06:32:34.436Z,29.75
2018-11-10T06:35:10.658Z,30.02
2018-11-10T06:37:46.046Z,28.73
2018-11-10T06:40:21.460Z,28.35
2018-11-10T06:42:56.769Z,30.80
2018-11-10T06:45:32.234Z,28.27
2018-11-10T06:48:07.512Z,30.85
2018-11-10T06:50:43.203Z,30.97
2018-11-10T06:53:25.348Z,30.35
2018-11-10T06:56:01.157Z,30.45
2018-11-10T06:58:36.512Z,28.83
2018-11-10T07:01:12.076Z,29.95
2018-11-10T07:03:47.310Z,27.82
2018-11-10T07:06:22.809Z,29.98
2018-11-10T07:08:58.138Z,28.27
2018-11-10T07:11:33.832Z,29.07
2018-11-10T07:14:09.158Z,27.73
2018-11-10T07:16:44.710Z,28.05
2018-11-10T07:19:20.418Z,30.37
2018-11-10T07:21:56.112Z,28.70
2018-11-10T07:24:31.487Z,29.70
2018-11-10T07:27:07.028Z,28.75
2018-11-10T07:29:42.249Z,27.85
2018-11-10T07:32:17.714Z,27.95
2018-11-10T07:34:53.041Z,27.73
2018-11-10T07:37:28.544Z,26.90
2018-11-10T07:40:04.016Z,25.88
2018-11-10T07:42:39.497Z,25.35
2018-11-10T07:45:15.943Z,26.65
2018-11-10T07:47:51.396Z,24.35
2018-11-10T07:50:26.812Z,26.07
2018-11-10T07:53:02.169Z,26.05
2018-11-10T07:55:37.492Z,22.85
2018-11-10T07:58:13.042Z,23.65
2018-11-10T08:00:51.215Z,21.80
2018-11-10T08:03:26.801Z,25.50
2018-11-10T08:06:02.497Z,23.30
2018-11-10T08:08:38.098Z,23.00
2018-11-10T08:11:13.669Z,23.02
2018-11-10T08:13:49.050Z,22.52
2018-11-10T08:16:24.552Z,20.80
2018-11-10T08:18:59.973Z,22.37
2018-11-10T08:21:35.525Z,21.05
2018-11-10T08:24:10.804Z,21.80
2018-11-10T08:26:46.149Z,22.40
2018-11-10T08:29:21.689Z,21.65
2018-11-10T08:31:57.036Z,21.65
2018-11-10T08:34:32.632Z,20.23
2018-11-10T08:37:07.814Z,20.82
2018-11-10T08:39:43.591Z,21.05
2018-11-10T08:42:18.914Z,19.62
2018-11-10T08:44:54.324Z,19.92
2018-11-10T08:47:29.563Z,20.08
2018-11-10T08:50:06.225Z,20.45
2018-11-10T08:52:42.333Z,21.82
2018-11-10T08:55:17.945Z,22.35
2018-11-10T08:57:53.345Z,19.87
2018-11-10T09:00:28.693Z,20.10
2018-11-10T09:03:04.205Z,18.87
2018-11-10T09:05:39.784Z,20.05
2018-11-10T09:08:15.311Z,20.85
2018-11-10T09:10:51.051Z,19.17
2018-11-10T09:13:26.334Z,20.88
2018-11-10T09:16:01.785Z,20.50
2018-11-10T09:18:37.053Z,20.25
2018-11-10T09:21:12.734Z,20.45
2018-11-10T09:23:47.897Z,18.17
2018-11-10T09:26:23.600Z,22.22
2018-11-10T09:28:58.925Z,20.00
2018-11-10T09:31:34.309Z,19.73
2018-11-10T09:34:09.492Z,18.07
2018-11-10T09:36:44.954Z,17.77
2018-11-10T09:39:20.373Z,20.40
2018-11-10T09:41:56.108Z,18.73
2018-11-10T09:44:31.395Z,19.85
2018-11-10T09:47:06.948Z,19.75
2018-11-10T09:49:42.358Z,19.95
2018-11-10T09:52:18.084Z,18.10
2018-11-10T09:54:53.549Z,17.75
2018-11-10T09:57:29.292Z,18.10
2018-11-10T10:00:07.021Z,17.73
2018-11-10T10:02:42.969Z,18.20
2018-11-10T10:05:18.117Z,19.40
2018-11-10T10:07:53.624Z,17.00
2018-11-10T10:10:29.481Z,17.67
2018-11-10T10:13:05.136Z,16.45
2018-11-10T10:15:40.532Z,14.87
2018-11-10T10:18:16.022Z,15.88
2018-11-10T10:20:51.260Z,13.35
2018-11-10T10:23:26.701Z,14.35
2018-11-10T10:26:02.193Z,14.35
2018-11-10T10:28:38.031Z,13.10
2018-11-10T10:31:13.345Z,12.98
2018-11-10T10:33:48.706Z,13.68
2018-11-10T10:36:24.236Z,13.00
2018-11-10T10:38:59.792Z,11.75
2018-11-10T10:41:35.206Z,11.88
2018-11-10T10:44:11.173Z,10.53
2018-11-10T10:46:46.657Z,11.03
2018-11-10T10:49:22.125Z,11.25
2018-11-10T10:51:57.472Z,10.90
2018-11-10T10:54:33.076Z,10.08
2018-11-10T10:57:08.595Z,11.43
2018-11-10T10:59:44.171Z,10.58
2018-11-10T11:02:24.680Z,10.30
2018-11-10T11:05:04.389Z,10.65
2018-11-10T11:07:39.801Z,9.05
2018-11-10T11:10:15.370Z,9.23
2018-11-10T11:12:50.931Z,8.88
2018-11-10T11:15:26.900Z,8.68
2018-11-10T11:18:02.260Z,9.13
2018-11-10T11:20:37.780Z,8.10
2018-11-10T11:23:13.300Z,8.05
2018-11-10T11:25:49.216Z,8.10
2018-11-10T11:28:25.313Z,7.58
2018-11-10T11:31:00.854Z,8.80
2018-11-10T11:33:36.257Z,8.63
2018-11-10T11:36:11.669Z,7.90
2018-11-10T11:38:46.861Z,8.88
2018-11-10T11:41:22.531Z,8.10
2018-11-10T11:43:57.866Z,8.00
2018-11-10T11:46:33.336Z,7.67
2018-11-10T11:49:08.489Z,7.90
2018-11-10T11:51:44.028Z,7.70
2018-11-10T11:54:19.387Z,8.30
2018-11-10T11:56:54.846Z,8.88
2018-11-10T11:59:30.085Z,8.28
2018-11-10T12:02:06.068Z,8.10
2018-11-10T12:04:41.455Z,7.90
2018-11-10T12:07:16.954Z,7.78
2018-11-10T12:09:52.552Z,9.45
2018-11-10T12:12:28.105Z,7.47
2018-11-10T12:15:03.476Z,6.70
2018-11-10T12:17:38.901Z,8.30
2018-11-10T12:20:15.348Z,7.30
2018-11-10T12:22:50.818Z,8.13
2018-11-10T12:25:26.229Z,8.10
2018-11-10T12:28:01.753Z,8.08
2018-11-10T12:30:37.080Z,9.23
2018-11-10T12:33:12.798Z,7.90
2018-11-10T12:35:48.193Z,8.43
2018-11-10T12:38:23.886Z,8.50
2018-11-10T12:40:59.286Z,7.80
2018-11-10T12:43:34.780Z,8.90
2018-11-10T12:46:10.120Z,7.80
2018-11-10T12:48:45.576Z,8.40
2018-11-10T12:51:21.040Z,7.70
2018-11-10T12:54:03.322Z,9.05
2018-11-10T12:56:38.822Z,8.05
2018-11-10T12:59:14.514Z,8.70
2018-11-10T13:01:50.035Z,8.55
2018-11-10T13:04:25.486Z,8.65
2018-11-10T13:07:01.266Z,8.83
2018-11-10T13:09:36.917Z,8.35
2018-11-10T13:12:12.331Z,7.53
2018-11-10T13:14:47.689Z,9.40
2018-11-10T13:17:23.112Z,8.03
2018-11-10T13:19:58.555Z,9.00
2018-11-10T13:22:33.767Z,8.70
2018-11-10T13:25:10.302Z,7.80
2018-11-10T13:27:45.628Z,8.63
2018-11-10T13:30:21.009Z,8.70
2018-11-10T13:32:56.373Z,8.63
2018-11-10T13:35:31.881Z,8.93
2018-11-10T13:38:07.136Z,9.35
2018-11-10T13:40:42.661Z,8.70
2018-11-10T13:43:18.121Z,8.98
2018-11-10T13:45:53.553Z,9.35
2018-11-10T13:48:29.045Z,10.15
2018-11-10T13:51:04.720Z,9.68
2018-11-10T13:53:40.070Z,8.70
2018-11-10T13:56:15.737Z,10.93
2018-11-10T13:58:51.472Z,10.43
2018-11-10T14:01:27.041Z,9.93
2018-11-10T14:04:02.328Z,9.85
2018-11-10T14:06:37.837Z,9.98
2018-11-10T14:09:13.351Z,10.30
2018-11-10T14:11:49.333Z,10.55
2018-11-10T14:14:24.865Z,10.85
2018-11-10T14:17:00.460Z,9.65
2018-11-10T14:19:35.860Z,10.63
2018-11-10T14:22:11.430Z,11.00
2018-11-10T14:24:46.808Z,9.93
2018-11-10T14:27:22.417Z,17.62
2018-11-10T14:29:57.656Z,10.50
2018-11-10T14:32:33.104Z,10.75
2018-11-10T14:35:09.345Z,10.30
2018-11-10T14:37:44.925Z,11.12
2018-11-10T14:40:20.419Z,11.08
2018-11-10T14:42:55.978Z,10.45
2018-11-10T14:45:31.299Z,11.40
2018-11-10T14:48:06.756Z,11.88
2018-11-10T14:50:42.070Z,10.93
2018-11-10T14:53:17.750Z,9.73
2018-11-10T14:55:53.113Z,11.50
2018-11-10T14:58:28.533Z,11.20
2018-11-10T15:01:03.885Z,11.08
2018-11-10T15:03:39.432Z,14.95
2018-11-10T15:06:14.695Z,11.45
2018-11-10T15:08:50.318Z,11.12
2018-11-10T15:11:25.983Z,11.10
2018-11-10T15:14:01.561Z,11.85
2018-11-10T15:16:37.089Z,13.08
2018-11-10T15:19:12.399Z,12.18
2018-11-10T15:21:47.969Z,12.13
2018-11-10T15:24:23.458Z,13.05
2018-11-10T15:26:58.940Z,11.73
2018-11-10T15:29:34.417Z,12.58
2018-11-10T15:32:09.705Z,12.55
2018-11-10T15:34:45.177Z,10.98
2018-11-10T15:37:20.663Z,13.35
2018-11-10T15:39:56.097Z,11.22
2018-11-10T15:42:31.459Z,12.23
2018-11-10T15:45:08.224Z,12.80
2018-11-10T15:47:43.961Z,11.97
2018-11-10T15:50:19.997Z,15.08
2018-11-10T15:52:55.293Z,15.28
2018-11-10T15:55:30.664Z,13.43
2018-11-10T15:58:06.349Z,14.80
2018-11-10T16:00:41.657Z,14.75
2018-11-10T16:03:17.083Z,15.95
2018-11-10T16:05:52.813Z,16.60
2018-11-10T16:08:28.185Z,16.35
2018-11-10T16:11:03.798Z,16.32
2018-11-10T16:13:39.132Z,17.10
2018-11-10T16:16:14.541Z,15.90
2018-11-10T16:18:49.869Z,16.77
2018-11-10T16:21:25.350Z,15.45
2018-11-10T16:24:00.671Z,17.00
2018-11-10T16:26:36.098Z,16.00
2018-11-10T16:29:11.422Z,17.30
2018-11-10T16:31:46.862Z,16.25
2018-11-10T16:34:22.395Z,17.12
2018-11-10T16:36:57.962Z,15.88
2018-11-10T16:39:33.362Z,16.62
2018-11-10T16:42:09.213Z,17.62
2018-11-10T16:44:44.766Z,17.40
2018-11-10T16:47:20.222Z,15.63
2018-11-10T16:49:55.536Z,15.93
2018-11-10T16:52:31.211Z,19.67
2018-11-10T16:55:07.429Z,21.45
2018-11-10T16:57:43.041Z,23.27
2018-11-10T17:00:19.713Z,16.17
2018-11-10T17:02:55.425Z,17.80
2018-11-10T17:05:30.808Z,18.10
2018-11-10T17:08:06.476Z,16.52
2018-11-10T17:10:41.831Z,16.77
2018-11-10T17:13:17.274Z,17.92
2018-11-10T17:15:52.700Z,17.25
2018-11-10T17:18:28.378Z,21.57
2018-11-10T17:21:03.759Z,19.37
2018-11-10T17:23:39.199Z,18.02
2018-11-10T17:26:14.673Z,21.52
2018-11-10T17:28:50.158Z,18.82
2018-11-10T17:31:25.674Z,22.20
2018-11-10T17:34:01.390Z,20.10
2018-11-10T17:36:36.800Z,21.40
2018-11-10T17:39:12.437Z,19.27
2018-11-10T17:41:47.922Z,20.12
2018-11-10T17:44:23.621Z,21.27
2018-11-10T17:46:58.881Z,21.62
2018-11-10T17:49:35.005Z,20.57
2018-11-10T17:52:10.388Z,19.82
2018-11-10T17:54:45.929Z,30.17
2018-11-10T17:57:21.150Z,21.62
2018-11-10T17:59:56.821Z,21.40
2018-11-10T18:02:32.504Z,26.87
2018-11-10T18:05:10.079Z,19.75
2018-11-10T18:07:45.676Z,23.25
2018-11-10T18:10:21.380Z,22.30
2018-11-10T18:12:56.743Z,23.40
2018-11-10T18:15:32.549Z,21.82
2018-11-10T18:18:07.953Z,23.73
2018-11-10T18:20:43.749Z,24.47
2018-11-10T18:23:19.012Z,24.30
2018-11-10T18:25:54.548Z,25.12
2018-11-10T18:28:29.960Z,21.77
2018-11-10T18:31:05.541Z,24.07
2018-11-10T18:33:41.366Z,23.67
2018-11-10T18:36:16.904Z,22.70
2018-11-10T18:38:52.428Z,21.77
2018-11-10T18:41:27.833Z,24.60
2018-11-10T18:44:09.741Z,21.55
2018-11-10T18:46:45.592Z,22.05
2018-11-10T18:49:20.901Z,20.97
2018-11-10T18:51:56.500Z,21.65
2018-11-10T18:54:32.030Z,21.30
2018-11-10T18:57:07.641Z,22.17
2018-11-10T18:59:42.868Z,22.42
2018-11-10T19:02:18.455Z,21.90
2018-11-10T19:04:54.787Z,21.68
2018-11-10T19:07:30.230Z,22.20
2018-11-10T19:10:07.444Z,22.25
2018-11-10T19:12:43.249Z,23.15
2018-11-10T19:15:20.061Z,22.67
2018-11-10T19:17:55.573Z,22.45
2018-11-10T19:20:31.085Z,23.15
2018-11-10T19:23:06.776Z,22.80
2018-11-10T19:25:42.190Z,21.73
2018-11-10T19:28:17.693Z,29.12
2018-11-10T19:30:53.094Z,21.93
2018-11-10T19:33:28.686Z,23.90
2018-11-10T19:36:04.185Z,20.12
2018-11-10T19:38:39.880Z,19.67
2018-11-10T19:41:15.247Z,26.25
2018-11-10T19:43:50.895Z,22.07
2018-11-10T19:46:26.249Z,22.37
2018-11-10T19:49:02.023Z,18.57
2018-11-10T19:51:37.537Z,17.40
2018-11-10T19:54:13.031Z,19.05
2018-11-10T19:56:48.453Z,18.02
2018-11-10T19:59:24.008Z,17.35
2018-11-10T20:01:59.501Z,15.48
2018-11-10T20:04:35.173Z,14.75
2018-11-10T20:07:10.621Z,15.28
2018-11-10T20:09:46.189Z,16.65
2018-11-10T20:12:21.736Z,18.62
2018-11-10T20:14:57.400Z,19.87
2018-11-10T20:17:32.957Z,15.10
2018-11-10T20:20:09.949Z,14.60
2018-11-10T20:22:45.434Z,14.25
2018-11-10T20:25:20.842Z,14.80
2018-11-10T20:27:57.160Z,17.05
2018-11-10T20:30:32.787Z,16.50
2018-11-10T20:33:08.092Z,13.80
2018-11-10T20:35:43.660Z,12.85
2018-11-10T20:38:19.064Z,13.50
2018-11-10T20:40:54.581Z,15.98
2018-11-10T20:43:30.118Z,12.68
2018-11-10T20:46:06.429Z,14.30
2018-11-10T20:48:41.865Z,11.45
2018-11-10T20:51:17.536Z,14.38
2018-11-10T20:53:52.870Z,12.25
2018-11-10T20:56:28.456Z,14.00
2018-11-10T20:59:03.959Z,11.70
2018-11-10T21:01:39.581Z,21.82
2018-11-10T21:04:15.398Z,12.40
2018-11-10T21:06:51.103Z,12.10
2018-11-10T21:09:26.354Z,10.93
2018-11-10T21:12:02.301Z,11.95
2018-11-10T21:14:37.857Z,11.22
2018-11-10T21:17:13.336Z,15.95
2018-11-10T21:19:49.246Z,11.70
2018-11-10T21:22:24.839Z,11.68
2018-11-10T21:25:00.470Z,11.35
2018-11-10T21:27:35.895Z,10.95
2018-11-10T21:30:13.000Z,10.60
2018-11-10T21:32:48.839Z,11.22
2018-11-10T21:35:24.260Z,11.10
2018-11-10T21:37:59.625Z,10.35
2018-11-10T21:40:35.111Z,8.95
2018-11-10T21:43:10.565Z,10.23
2018-11-10T21:45:46.024Z,9.80
2018-11-10T21:48:21.689Z,11.43
2018-11-10T21:50:56.889Z,10.25
2018-11-10T21:53:32.521Z,10.82
2018-11-10T21:56:07.708Z,15.20
2018-11-10T21:58:43.131Z,9.85
2018-11-10T22:01:18.503Z,9.65
2018-11-10T22:03:54.164Z,10.20
2018-11-10T22:06:29.380Z,9.63
2018-11-10T22:09:07.078Z,9.83
2018-11-10T22:11:43.961Z,11.90
2018-11-10T22:14:19.372Z,10.70
2018-11-10T22:16:54.632Z,11.93
2018-11-10T22:19:30.198Z,10.88
2018-11-10T22:22:05.885Z,10.00
2018-11-10T22:24:41.452Z,10.50
2018-11-10T22:27:17.076Z,12.05
2018-11-10T22:29:52.578Z,12.10
2018-11-10T22:32:27.958Z,10.58
2018-11-10T22:35:03.657Z,10.65
2018-11-10T22:37:39.290Z,9.93
2018-11-10T22:40:16.041Z,9.40
2018-11-10T22:42:51.600Z,10.15
2018-11-10T22:45:27.238Z,10.15
2018-11-10T22:48:02.708Z,9.90
2018-11-10T22:50:38.313Z,10.23
2018-11-10T22:53:13.858Z,10.45
2018-11-10T22:55:49.281Z,11.40
2018-11-10T22:58:24.580Z,10.20
2018-11-10T23:01:07.267Z,10.18
2018-11-10T23:03:42.713Z,10.18
2018-11-10T23:06:18.322Z,12.30
2018-11-10T23:08:53.620Z,9.00
2018-11-10T23:11:29.156Z,8.83
2018-11-10T23:14:04.685Z,11.97
2018-11-10T23:16:40.121Z,9.95
2018-11-10T23:19:15.551Z,15.10
2018-11-10T23:21:51.334Z,10.20
2018-11-10T23:24:26.681Z,9.80
2018-11-10T23:27:02.443Z,9.93
2018-11-10T23:29:37.773Z,10.68
2018-11-10T23:32:13.426Z,9.73
2018-11-10T23:34:48.783Z,10.58
2018-11-10T23:37:24.276Z,9.98
2018-11-10T23:39:59.534Z,10.58
2018-11-10T23:42:35.153Z,12.80
2018-11-10T23:45:11.032Z,9.40
2018-11-10T23:47:46.589Z,10.68
2018-11-10T23:50:21.957Z,12.73
2018-11-10T23:52:57.385Z,10.75
2018-11-10T23:55:32.821Z,11.12
2018-11-10T23:58:08.277Z,9.23
